Flight Track Log - Related Links

Times and Time Zones

All times are in EDT time to prevent confusion due to time zone crossing. See the EGF4247 flight status page for this flight to view local times or setup timezone preferences in your user account.

Time Position Orientation Groundspeed Altitude Reporting Facility
EDT Latitude Longitude Course Direction KTS MPH feet Rate Location/Type
03:57PM 42.9000 -78.7667 274° West 160 184 2,900  Level Toronto Center
03:58PM 42.9167 -78.8000 304° West 189 217 3,500 1,895 Climbing Buffalo TRACON
03:59PM 42.9500 -79.0646 270° West  Level FlightAware Approximate
03:59PM 42.9167 -78.8833 270° West 217 250 5,300  Level Buffalo TRACON
03:59PM 42.9167 -78.9333 270° West 230 265 7,200 2,308 Climbing Toronto Center
04:00PM 42.9595 -79.1806 277° West  Level FlightAware Approximate
04:00PM 42.9167 -79.0167 270° West 240 276 9,300  Level Toronto Center
04:01PM 42.9667 -79.2969 270° West  Level FlightAware Approximate
04:01PM 42.9167 -79.1167 270° West 250 288 11,400  Level Toronto Center
04:02PM 42.9667 -79.4138 270° West  Level FlightAware Approximate
04:02PM 42.9333 -79.2167 283° West 270 311 12,900  Level Toronto Center
04:03PM 42.9682 -79.5306 274° West  Level FlightAware Approximate
04:03PM 42.9333 -79.3167 270° West 280 322 14,000  Level Toronto Center
04:04PM 42.9333 -79.4333 270° West 290 334 15,400 1,000 Climbing Toronto Center
04:06PM 42.9500 -79.6500 276° West 310 357 17,000 933 Climbing Toronto Center
04:07PM 42.9667 -79.8000 279° West 320 368 18,200 1,050 Climbing Toronto Center
04:08PM 42.9667 -79.9000 270° West 330 380 19,100 950 Climbing Toronto Center
04:09PM 42.9833 -80.0500 279° West 330 380 20,100 950 Climbing Toronto Center
04:10PM 42.9833 -80.1500 270° West 340 391 21,000 950 Climbing Toronto Center
04:11PM 42.9833 -80.3000 270° West 350 403 22,000 950 Climbing Toronto Center
04:12PM 43.0000 -80.4333 280° West 350 403 22,900 900 Climbing Toronto Center
04:13PM 43.0000 -80.5667 270° West 350 403 23,800 900 Climbing Toronto Center
04:14PM 43.0167 -80.7000 280° West 350 403 24,700 950 Climbing Toronto Center
04:15PM 43.0000 -80.8167 259° West 340 391 25,700 950 Climbing Toronto Center
04:16PM 43.0000 -80.9500 270° West 340 391 26,600 900 Climbing Toronto Center
04:17PM 43.0000 -81.1000 270° West 340 391 27,500 900 Climbing Toronto Center
04:18PM 43.0000 -81.2000 270° West 340 391 28,400 950 Climbing Toronto Center
04:19PM 43.0000 -81.3500 270° West 340 391 29,400 950 Climbing Toronto Center
04:20PM 43.0000 -81.4833 270° West 340 391 30,300 900 Climbing Toronto Center
04:21PM 43.0000 -81.6000 270° West 340 391 31,200 950 Climbing Toronto Center
04:22PM 43.0000 -81.7333 270° West 350 403 32,200 950 Climbing Toronto Center
04:23PM 43.0000 -81.8667 270° West 350 403 33,100 900 Climbing Toronto Center
04:24PM 42.9833 -82.0000 260° West 350 403 34,000 450 Climbing Toronto Center
04:25PM 42.9833 -82.1333 270° West 360 414 34,000  Level Toronto Center
04:26PM 42.9833 -82.3000 270° West 380 437 34,000  Level Toronto Center
04:27PM 42.9833 -82.4333 270° West 380 437 34,000  Level Toronto Center
04:28PM 42.9833 -82.5667 270° West 390 449 34,000  Level Toronto Center
04:29PM 42.9931 -82.6950 276° West 388 447 34,000 -224 Level Cleveland Center
04:30PM 42.9842 -82.8394 265° West 388 447 33,600 -550 Descending Cleveland Center
04:31PM 42.9750 -82.9781 265° West 383 441 32,900 -700 Descending Cleveland Center
04:32PM 42.9678 -83.1283 266° West 383 441 32,200 -450 Descending Cleveland Center
04:33PM 42.9603 -83.2697 266° West 383 441 32,000 -100 Descending Cleveland Center
04:34PM 42.9506 -83.4142 265° West 383 441 32,000  Level Cleveland Center
04:35PM 42.9408 -83.5583 265° West 388 447 32,000  Level Cleveland Center
04:36PM 42.9306 -83.7053 265° West 388 447 32,000  Level Cleveland Center
04:37PM 42.9203 -83.8494 264° West 388 447 32,000  Level Cleveland Center
04:38PM 42.9072 -84.0131 264° West 388 447 32,000  Level Cleveland Center
04:39PM 42.8986 -84.1572 265° West 388 447 32,000  Level Cleveland Center
04:40PM 42.8836 -84.3039 262° West 388 447 32,000  Level Cleveland Center
04:41PM 42.8775 -84.4311 266° West 388 447 32,000  Level Cleveland Center
04:43PM 42.8578 -84.6683 264° West 391 450 32,000  Level Chicago Center
04:44PM 42.8458 -84.8158 264° West 393 452 32,000  Level Chicago Center
04:45PM 42.8339 -84.9578 264° West 381 438 32,000  Level Chicago Center
04:46PM 42.8225 -85.0911 263° West 359 413 32,000  Level Chicago Center
04:47PM 42.8114 -85.2211 263° West 348 400 32,000 -195 Level Chicago Center
04:48PM 42.7989 -85.3542 263° West 353 406 31,600 -871 Descending Chicago Center
04:49PM 42.7853 -85.5114 263° West 349 402 30,200 -1,500 Descending Chicago Center
04:50PM 42.7625 -85.6381 256° West 343 395 28,500 -1,597 Descending Chicago Center
04:51PM 42.7392 -85.7642 256° West 343 395 26,900 -1,742 Descending Chicago Center
04:52PM 42.7172 -85.8883 257° West 337 388 24,900 -2,032 Descending Chicago Center
04:53PM 42.6931 -86.0150 255° West 342 394 22,700 -2,016 Descending Chicago Center
04:54PM 42.6678 -86.1528 256° West 368 423 20,700 -1,296 Descending Chicago Center
04:55PM 42.6431 -86.2853 256° West 363 418 20,000 -677 Descending Chicago Center
04:56PM 42.6147 -86.4403 256° West 355 409 19,300 -1,161 Descending Chicago Center
04:57PM 42.5897 -86.5694 255° West 354 407 17,600 -1,935 Descending Chicago Center
04:58PM 42.5656 -86.6964 256° West 348 400 15,300 -2,177 Descending Chicago Center
04:59PM 42.5375 -86.8172 253° West 341 392 13,100 -1,597 Descending Chicago Center
05:00PM 42.5033 -86.9364 249° West 339 390 12,000 -823 Descending Chicago Center
05:01PM 42.4711 -87.0503 249° West 330 380 11,400 -871 Descending Chicago Center
05:02PM 42.4372 -87.1742 250° West 296 341 10,200 -1,161 Descending Chicago Center
05:03PM 42.4122 -87.2686 250° West 269 310 9,000 -968 Descending Chicago Center
05:04PM 42.3858 -87.3600 249° West 263 303 8,200 -1,152 Descending Chicago Center
05:05PM 42.3592 -87.4583 250° West 261 300 6,600 -1,056 Descending Chicago Center
05:06PM 42.3331 -87.5436 248° West 248 285 6,000 -290 Descending Chicago Center
05:08PM 42.2544 -87.5547 186° South 256 295 6,000 -435 Level Chicago Center
05:09PM 42.1825 -87.5572 181° South 260 299 5,100 -677 Descending Chicago Center
05:10PM 42.1167 -87.5789 194° South 248 285 4,600 -738 Descending Chicago Center
05:11PM 42.0500 -87.6333 211° Southwest 244 281 3,600 -762 Descending Chicago TRACON
05:12PM 42.0167 -87.7000 236° Southwest 208 239 3,000 -545 Descending Chicago TRACON

Login

Don't have an account? Register now (free) for customized features, flight alerts, and more!